No.3tokuyomaru — JD3132 — position and weather

sailwx.info

Track history (hours):
 
Tides and Currents Weather Stations Pressure Air Temp Water Temp Dewpoint Dewpoint Depression Visibility Wind Speed Wind Dir Waves Ship Positions

No.3tokuyomaru

Last reported at 2014-Nov-16 06:33 UTC. Time now 2014-Nov-24 12:30 UTC.
Position N 34°35' E 135°07'.
Warning: this ship's position is 8 days out of date.

Length 67 m; draft 4.6 m.

Type: Tanker. MMSI: 431002151.

Date/timePositionNaut miles runAvg speedWind from/ knotsBaromVisibWave heightAir tempDewpointWater temp
2014-Nov-16 06:33N 34°35' E 135°07'1312.8
2014-Nov-16 05:33N 34°34' E 135°22'3 0.7
2014-Nov-16 00:27N 34°33' E 135°26'5 2.7
2014-Nov-15 22:24N 34°32' E 135°20'0 0.1
2014-Nov-15 21:30N 34°32' E 135°20'0 0.0
2014-Nov-15 20:24N 34°32' E 135°20'0 0.0
2014-Nov-15 19:24N 34°32' E 135°20'0 0.0
2014-Nov-15 18:24N 34°32' E 135°20'0 0.0
2014-Nov-15 17:30N 34°32' E 135°20'0 0.0
2014-Nov-15 15:24N 34°32' E 135°20'0 0.1
2014-Nov-15 14:30N 34°32' E 135°20'0 0.0
2014-Nov-15 13:30N 34°32' E 135°20'0 0.0
2014-Nov-15 12:30N 34°32' E 135°20'0 0.0
2014-Nov-15 11:24N 34°32' E 135°20'0 0.0
2014-Nov-15 10:30N 34°32' E 135°20'0 0.0
2014-Nov-15 09:24N 34°32' E 135°20'8 9.9
2014-Nov-15 08:33N 34°27' E 135°11'1312.8
2014-Nov-15 07:31N 34°16' E 135°03'1312.8
2014-Nov-15 06:29N 34°03' E 135°02'243 9.6
2014-Nov-14 05:06N 35°19' E 139°43'611.8
2014-Nov-14 04:33N 35°25' E 139°43'10 0.2
2014-Nov-12 12:15N 35°30' E 139°54'912.5
2014-Nov-12 11:33N 35°24' E 139°46'1211.6
2014-Nov-12 10:32N 35°12' E 139°47'7 0.3
2014-Nov-11 11:08N 35°19' E 139°43'711.7
2014-Nov-11 10:33N 35°26' E 139°45'4 0.2
2014-Nov-10 16:32N 35°26' E 139°49'1110.9
2014-Nov-10 15:32N 35°15' E 139°47'  
Track history (hours):
 
Tides and Currents Weather Stations Pressure Air Temp Water Temp Dewpoint Dewpoint Depression Visibility Wind Speed Wind Dir Waves Ship Positions

No.3tokuyomaru

Last reported at 2014-Nov-16 06:33 UTC. Time now 2014-Nov-24 12:30 UTC.
Position N 34°35' E 135°07'.
Warning: this ship's position is 8 days out of date.

Length 67 m; draft 4.6 m.

Type: Tanker. MMSI: 431002151.

Date/timePositionNaut miles runAvg speedWind from/ knotsBaromVisibWave heightAir tempDewpointWater temp
2014-Nov-16 06:33N 34°35' E 135°07'1312.8
2014-Nov-16 05:33N 34°34' E 135°22'3 0.7
2014-Nov-16 00:27N 34°33' E 135°26'5 2.7
2014-Nov-15 22:24N 34°32' E 135°20'0 0.1
2014-Nov-15 21:30N 34°32' E 135°20'0 0.0
2014-Nov-15 20:24N 34°32' E 135°20'0 0.0
2014-Nov-15 19:24N 34°32' E 135°20'0 0.0
2014-Nov-15 18:24N 34°32' E 135°20'0 0.0
2014-Nov-15 17:30N 34°32' E 135°20'0 0.0
2014-Nov-15 15:24N 34°32' E 135°20'0 0.1
2014-Nov-15 14:30N 34°32' E 135°20'0 0.0
2014-Nov-15 13:30N 34°32' E 135°20'0 0.0
2014-Nov-15 12:30N 34°32' E 135°20'0 0.0
2014-Nov-15 11:24N 34°32' E 135°20'0 0.0
2014-Nov-15 10:30N 34°32' E 135°20'0 0.0
2014-Nov-15 09:24N 34°32' E 135°20'8 9.9
2014-Nov-15 08:33N 34°27' E 135°11'1312.8
2014-Nov-15 07:31N 34°16' E 135°03'1312.8
2014-Nov-15 06:29N 34°03' E 135°02'243 9.6
2014-Nov-14 05:06N 35°19' E 139°43'611.8
2014-Nov-14 04:33N 35°25' E 139°43'10 0.2
2014-Nov-12 12:15N 35°30' E 139°54'912.5
2014-Nov-12 11:33N 35°24' E 139°46'1211.6
2014-Nov-12 10:32N 35°12' E 139°47'7 0.3
2014-Nov-11 11:08N 35°19' E 139°43'711.7
2014-Nov-11 10:33N 35°26' E 139°45'4 0.2
2014-Nov-10 16:32N 35°26' E 139°49'1110.9
2014-Nov-10 15:32N 35°15' E 139°47'  

Dump ship's entire track history